International Virtual Aviation Organisation

Eastern Europe and Northern Asia MCD

 
ULPB 101100Z 19007G12MPS 9999 BKN037 08/00 Q1008 R19/290250 NOSIG RMK QFE752/1003
QNH:(hPa/inHg/mmHg)1008 / 29.77 / 756
QFE:(hPa/inHg/mmHg)1002 / 29.60 / 752
Temperature8
Dew Point0
Visibility> 10000
Weather
Cloud CoverBKN (3700);
Transition Height900 m./3200 ft.
Transition LevelFL50
SQUAWK